Weather reports worldwide

Advertisment
Xinzo De Limia, Spain (8050): temperature & dewpoint: 20.05.2019 02:00:00 - 26.05.2019 02:00:00 (CEST)Xinzo De Limia, Spain (8050): wind speed & gusts: 20.05.2019 02:00:00 - 26.05.2019 02:00:00 (CEST)Xinzo De Limia, Spain (8050): wind direction: 20.05.2019 02:00:00 - 26.05.2019 02:00:00 (CEST)Xinzo De Limia, Spain (8050): precipitation: 20.05.2019 02:00:00 - 26.05.2019 02:00:00 (CEST)
Date & Time tt [°C] td [°C] ff [km/h] ff [kn] fx [km/h] fx [kn] dd rr [mm]
26.05.2019 02:00:00 - - - - - - - -
26.05.2019 01:00:00 10,3 6,3 1 0 11 6 SW 0,0
26.05.2019 00:00:00 11,2 5,9 9 5 12 7 NNW 0,0
25.05.2019 23:00:00 13,3 6,7 0 0 26 14 S 0,0
25.05.2019 22:00:00 14,9 6,7 16 9 26 14 N 0,0
25.05.2019 21:00:00 18,5 7,3 16 9 32 18 N 0,0
25.05.2019 20:00:00 20,7 8,4 17 9 29 15 NNW -
25.05.2019 19:00:00 21,7 8,9 18 10 30 16 NNW 0,0
25.05.2019 18:00:00 21,7 8,9 16 9 34 18 NNW 0,0
25.05.2019 17:00:00 21,7 8,9 19 11 38 21 N 0,0
25.05.2019 16:00:00 21,7 8,6 21 11 34 19 NNW 0,0
25.05.2019 15:00:00 20,2 7,2 15 8 34 18 NNW 0,0
25.05.2019 14:00:00 19,1 6,9 16 8 26 14 NNW -
25.05.2019 13:00:00 17,7 7,7 10 5 25 13 N 0,0
25.05.2019 12:00:00 15,4 7,2 10 5 22 12 NNW 0,0
25.05.2019 11:00:00 12,9 8,0 8 5 16 9 NNW 0,0
25.05.2019 10:00:00 10,7 9,0 5 3 11 6 NNW 0,0
25.05.2019 09:00:00 8,7 7,6 4 2 9 5 NW 0,0
25.05.2019 08:00:00 4,8 3,8 3 1 6 4 SW -
25.05.2019 07:00:00 3,8 2,8 1 1 7 4 WSW 0,0
25.05.2019 06:00:00 4,3 3,1 3 1 6 3 SSW 0,0
25.05.2019 05:00:00 5,5 4,3 4 2 9 5 W 0,0
25.05.2019 04:00:00 5,4 3,9 4 2 9 5 WSW 0,0
25.05.2019 03:00:00 5,9 4,1 3 2 10 5 WSW 0,0
25.05.2019 02:00:00 7,5 5,1 8 5 13 7 NW -
25.05.2019 01:00:00 8,4 5,3 6 3 12 6 WNW 0,0
25.05.2019 00:00:00 9,2 5,6 3 2 18 10 W 0,0
24.05.2019 23:00:00 10,1 5,7 10 5 24 13 N 0,0
24.05.2019 22:00:00 12,1 5,5 14 8 31 17 N 0,0
24.05.2019 21:00:00 14,7 5,5 25 13 36 20 N 0,0
24.05.2019 20:00:00 16,0 5,6 28 15 41 22 N -
24.05.2019 19:00:00 16,9 6,1 26 14 40 22 N 0,0
24.05.2019 18:00:00 16,8 6,3 26 14 40 22 N 0,0
24.05.2019 17:00:00 17,3 6,5 24 13 38 20 N 0,0
24.05.2019 16:00:00 17,6 6,2 21 11 37 20 N 0,0
24.05.2019 15:00:00 16,7 6,0 21 12 39 21 NNW 0,0
24.05.2019 14:00:00 15,8 6,0 21 12 40 22 NNW -
24.05.2019 13:00:00 14,3 5,7 21 11 37 20 N 0,0
24.05.2019 12:00:00 13,8 6,2 22 12 41 22 N 0,0
24.05.2019 11:00:00 12,0 5,9 19 10 35 19 N 0,0
24.05.2019 10:00:00 9,5 6,2 16 9 29 16 NNW 0,0
24.05.2019 09:00:00 7,9 6,8 10 5 19 10 NNW 0,0
24.05.2019 08:00:00 6,3 5,3 9 5 17 9 NW -
24.05.2019 07:00:00 4,7 3,5 4 2 10 5 WNW 0,0
24.05.2019 06:00:00 5,4 4,1 5 3 13 7 W 0,0
24.05.2019 05:00:00 6,3 4,9 5 3 19 10 WNW 0,0
24.05.2019 04:00:00 6,7 5,2 12 6 19 10 NNW 0,0
24.05.2019 03:00:00 7,1 5,4 10 5 19 11 NNW 0,0
24.05.2019 02:00:00 7,4 5,1 5 3 14 7 NW -
24.05.2019 01:00:00 8,4 5,2 8 5 19 11 WNW 0,0
24.05.2019 00:00:00 9,6 5,8 11 6 18 10 WNW 0,0
23.05.2019 23:00:00 11,1 6,5 10 6 25 13 NW 0,0
23.05.2019 22:00:00 12,7 6,3 16 8 28 15 NNW 0,0
23.05.2019 21:00:00 14,6 5,7 19 10 29 16 NNW 0,0
23.05.2019 20:00:00 16,3 6,2 18 10 31 17 NW -
23.05.2019 19:00:00 19,0 6,8 20 11 32 17 NW 0,0
23.05.2019 18:00:00 19,9 7,6 16 8 29 16 NW 0,0
23.05.2019 17:00:00 18,9 7,4 16 9 26 14 NNW 0,0
23.05.2019 16:00:00 18,5 9,8 11 6 26 14 NNW 0,0
23.05.2019 15:00:00 15,9 10,0 14 8 29 15 N 0,0
23.05.2019 14:00:00 15,9 9,8 14 8 29 16 NNW -
23.05.2019 13:00:00 16,4 10,5 13 7 26 14 N 0,0
23.05.2019 12:00:00 16,0 8,7 16 8 26 14 NNW 0,0
23.05.2019 11:00:00 15,6 9,3 2 1 10 5 NW 0,0
23.05.2019 10:00:00 12,8 11,4 4 2 10 5 N 0,0
23.05.2019 09:00:00 8,6 7,7 0 0 3 2 N 0,0
23.05.2019 08:00:00 5,8 4,9 0 0 3 1 N -
23.05.2019 07:00:00 5,8 4,8 1 0 4 2 ESE 0,0
23.05.2019 06:00:00 5,7 4,7 0 0 2 1 N 0,0
23.05.2019 05:00:00 6,4 5,2 0 0 3 2 S 0,0
23.05.2019 04:00:00 6,8 5,4 2 1 8 4 WSW 0,0
23.05.2019 03:00:00 6,7 5,0 0 0 0 0 N 0,0
23.05.2019 02:00:00 8,3 6,1 0 0 7 4 N -
23.05.2019 01:00:00 10,2 7,6 4 2 9 5 SSW 0,0
23.05.2019 00:00:00 10,9 6,8 1 0 6 3 NNE 0,0
22.05.2019 23:00:00 13,9 8,5 3 2 13 7 NNW 0,0
22.05.2019 22:00:00 16,3 9,9 8 4 18 10 WNW 0,0
22.05.2019 21:00:00 20,3 10,7 10 5 21 11 WNW 0,0
22.05.2019 20:00:00 22,6 10,7 10 5 29 15 WNW -
22.05.2019 19:00:00 23,7 10,7 11 6 21 12 WNW 0,0
22.05.2019 18:00:00 24,0 10,0 7 4 20 11 W 0,0
22.05.2019 17:00:00 24,5 9,7 1 1 14 8 NW 0,0
22.05.2019 16:00:00 24,3 8,3 8 4 20 11 S 0,0
22.05.2019 15:00:00 24,8 9,1 7 4 23 12 SSE 0,0
22.05.2019 14:00:00 23,8 9,0 8 4 19 10 S -
22.05.2019 13:00:00 22,5 9,0 7 4 21 11 E 0,0
22.05.2019 12:00:00 21,0 9,3 9 5 19 10 ESE 0,0
22.05.2019 11:00:00 18,4 11,5 6 4 16 8 SE 0,0
22.05.2019 10:00:00 13,2 11,9 1 0 5 3 S 0,0
22.05.2019 09:00:00 8,3 7,4 1 0 5 3 S 0,0
22.05.2019 08:00:00 5,2 4,3 4 2 8 5 SSW -
22.05.2019 07:00:00 4,5 3,5 3 2 6 4 SW 0,0
22.05.2019 06:00:00 4,2 3,0 0 0 3 1 NW 0,0
22.05.2019 05:00:00 5,8 4,4 0 0 6 3 S 0,0
22.05.2019 04:00:00 7,3 5,8 1 0 5 3 S 0,0
22.05.2019 03:00:00 8,7 6,8 4 2 7 4 SSW 0,0
22.05.2019 02:00:00 9,9 7,7 4 2 8 4 SW -
22.05.2019 01:00:00 10,6 7,5 5 3 8 4 SW 0,0
22.05.2019 00:00:00 12,4 8,3 4 2 9 5 SSW 0,0
21.05.2019 23:00:00 14,2 8,4 5 3 16 9 WNW 0,0
21.05.2019 22:00:00 16,4 7,6 10 5 16 9 WNW 0,0
21.05.2019 21:00:00 20,3 6,3 10 5 19 10 NNW 0,0
21.05.2019 20:00:00 21,3 6,4 9 5 19 10 N -
21.05.2019 19:00:00 21,9 7,3 11 6 24 13 NNW 0,0
21.05.2019 18:00:00 21,9 7,3 9 5 22 12 N 0,0
21.05.2019 17:00:00 21,4 7,6 10 5 21 11 N 0,0
21.05.2019 16:00:00 21,1 8,4 9 5 19 10 NNW 0,0
21.05.2019 15:00:00 20,8 8,8 5 3 17 9 N 0,0
21.05.2019 14:00:00 18,8 7,3 8 4 18 10 N -
21.05.2019 13:00:00 18,0 6,5 4 2 15 8 NNE 0,0
21.05.2019 12:00:00 17,1 7,7 6 4 15 8 NNE 0,0
21.05.2019 11:00:00 15,1 9,0 1 1 9 5 NW 0,0
21.05.2019 10:00:00 11,2 9,3 2 1 6 4 SSW 0,0
21.05.2019 09:00:00 7,4 6,3 1 1 5 3 SSW 0,0
21.05.2019 08:00:00 4,5 3,5 0 0 3 2 ESE -
21.05.2019 07:00:00 2,9 1,7 1 1 5 3 SW 0,0
21.05.2019 06:00:00 3,8 2,6 2 1 6 3 S 0,0
21.05.2019 05:00:00 4,7 3,4 3 2 7 4 SSW 0,0
21.05.2019 04:00:00 5,2 3,5 4 2 8 4 SSW 0,0
21.05.2019 03:00:00 6,4 4,4 0 0 9 5 N 0,0
21.05.2019 02:00:00 7,1 4,9 3 2 12 6 WSW -
21.05.2019 01:00:00 6,7 3,9 0 0 6 3 W 0,0
21.05.2019 00:00:00 8,9 5,1 0 0 11 6 SSW 0,0
20.05.2019 23:00:00 9,2 4,2 0 0 0 0 N 0,0
20.05.2019 22:00:00 11,5 4,0 0 0 13 7 WNW 0,0
20.05.2019 21:00:00 14,0 4,3 7 4 15 8 NW 0,0
20.05.2019 20:00:00 14,7 3,8 9 5 18 10 NW -
20.05.2019 19:00:00 15,5 4,3 10 6 20 11 WNW 0,0
20.05.2019 18:00:00 15,3 4,4 12 6 21 11 W 0,0
20.05.2019 17:00:00 15,6 3,7 12 7 20 11 NW 0,0
20.05.2019 16:00:00 15,9 2,4 10 5 26 14 N 0,0
20.05.2019 15:00:00 16,4 -0,7 10 5 24 13 NW 0,0
20.05.2019 14:00:00 16,0 2,8 4 2 19 11 SSW -
20.05.2019 13:00:00 14,4 4,1 1 1 9 5 N 0,0
20.05.2019 12:00:00 12,8 6,4 0 0 7 4 WSW 0,0
20.05.2019 11:00:00 9,7 7,8 0 0 5 3 N 0,0
20.05.2019 10:00:00 6,9 6,0 0 0 0 0 N 0,0
20.05.2019 09:00:00 4,5 3,6 0 0 3 2 W 0,0
20.05.2019 08:00:00 0,9 0,0 0 0 6 3 N -
20.05.2019 07:00:00 0,5 -0,3 0 0 5 3 NNW 0,0
20.05.2019 06:00:00 1,6 0,6 0 0 8 4 S 0,0
20.05.2019 05:00:00 0,7 -0,4 1 1 6 4 NNW 0,0
20.05.2019 04:00:00 2,6 1,3 4 2 9 5 SE 0,0
20.05.2019 03:00:00 3,7 2,1 5 3 11 6 WSW 0,0
20.05.2019 02:00:00 5,0 3,0 5 3 14 8 W -

tt = temperature
td = dewpoint
ff = wind speed
fx = gusts
dd = wind direction
rr = precipitation

Next stations